Time;durP1;ratioP1;P1;durP2;ratioP2;P2;SDS_P1;SDS_P2;PMS_P1;PMS_P2;Temp;Humidity;BMP_temperature;BMP_pressure;BME280_temperature;BME280_humidity;BME280_pressure;Samples;Min_cycle;Max_cycle;Signal;HPM_P1;HPM_P2
2023/12/20 00:00:37;;;;;;;6.85;2.83;;;5.80;99.90;;;;;;4995001;28;20073;-75
2023/12/20 00:03:03;;;;;;;9.88;4.13;;;5.70;99.90;;;;;;4994744;28;20401;-75
2023/12/20 00:05:41;;;;;;;8.30;4.03;;;5.70;99.90;;;;;;4994926;28;20030;-75
2023/12/20 00:08:06;;;;;;;10.43;3.75;;;5.70;99.90;;;;;;4996153;28;20014;-75
2023/12/20 00:10:32;;;;;;;6.07;2.97;;;5.70;99.90;;;;;;4995668;28;20033;-75
2023/12/20 00:13:00;;;;;;;3.92;2.30;;;5.80;99.90;;;;;;4994937;28;20183;-75
2023/12/20 00:15:32;;;;;;;4.60;2.70;;;5.80;99.90;;;;;;4995239;28;20384;-71
2023/12/20 00:17:58;;;;;;;5.63;2.30;;;5.80;99.90;;;;;;4994653;28;20499;-76
2023/12/20 00:20:29;;;;;;;5.78;2.55;;;5.80;99.90;;;;;;4993602;28;20101;-73
2023/12/20 00:23:02;;;;;;;5.82;2.50;;;5.80;99.90;;;;;;4993675;28;20019;-72
2023/12/20 00:25:27;;;;;;;4.57;2.45;;;5.80;99.90;;;;;;4994707;28;20036;-73
2023/12/20 00:27:53;;;;;;;4.80;2.60;;;5.80;99.90;;;;;;4994790;28;20472;-74
2023/12/20 00:30:19;;;;;;;5.10;2.58;;;5.80;99.90;;;;;;4994037;28;20029;-72
2023/12/20 00:32:50;;;;;;;3.72;2.22;;;5.80;99.90;;;;;;4993739;28;20026;-73
2023/12/20 00:35:19;;;;;;;5.82;2.45;;;5.80;99.90;;;;;;4993168;28;20505;-75
2023/12/20 00:37:50;;;;;;;4.22;2.55;;;5.80;99.90;;;;;;4976942;28;20037;-74
2023/12/20 00:40:16;;;;;;;4.75;2.65;;;5.80;99.90;;;;;;4993671;28;20465;-74
2023/12/20 00:42:46;;;;;;;4.65;2.80;;;5.80;99.90;;;;;;4976351;28;20046;-74
2023/12/20 00:45:15;;;;;;;4.05;2.30;;;5.80;99.90;;;;;;4975338;28;20033;-75
2023/12/20 00:47:41;;;;;;;3.85;2.28;;;5.80;99.90;;;;;;4975384;28;20104;-75
2023/12/20 00:50:07;;;;;;;5.65;2.85;;;5.80;99.90;;;;;;4993136;28;20421;-76
2023/12/20 00:52:32;;;;;;;4.53;2.55;;;5.80;99.90;;;;;;4994744;28;20473;-75
2023/12/20 00:55:07;;;;;;;6.88;3.92;;;5.90;99.90;;;;;;4994868;28;20027;-76
2023/12/20 00:57:39;;;;;;;15.07;4.93;;;5.80;99.90;;;;;;4994437;28;20108;-76
2023/12/20 01:00:05;;;;;;;13.18;5.20;;;5.90;99.90;;;;;;4994591;28;20090;-76
2023/12/20 01:02:37;;;;;;;13.90;4.47;;;5.90;99.90;;;;;;4992997;28;20022;-76
2023/12/20 01:05:03;;;;;;;14.50;5.25;;;5.90;99.90;;;;;;5003009;28;20085;-76
2023/12/20 01:07:29;;;;;;;8.35;3.92;;;5.90;99.90;;;;;;4988106;28;20051;-76
2023/12/20 01:09:54;;;;;;;7.18;2.83;;;5.90;99.90;;;;;;4997136;28;20549;-74
2023/12/20 01:12:20;;;;;;;3.20;1.55;;;5.90;99.90;;;;;;4994705;28;20074;-75
2023/12/20 01:14:46;;;;;;;5.05;1.50;;;5.90;99.90;;;;;;4997449;28;20014;-75
2023/12/20 01:17:12;;;;;;;3.13;1.50;;;5.90;99.90;;;;;;4997498;28;20069;-74
2023/12/20 01:19:37;;;;;;;3.25;1.58;;;6.00;99.90;;;;;;4997061;28;20670;-75
2023/12/20 01:22:06;;;;;;;4.68;1.45;;;6.00;99.90;;;;;;4997371;28;20106;-73
2023/12/20 01:24:31;;;;;;;3.33;1.00;;;6.00;99.90;;;;;;4996450;28;20085;-74
2023/12/20 01:27:00;;;;;;;2.47;1.58;;;6.00;99.90;;;;;;4996463;28;20488;-73
2023/12/20 01:29:26;;;;;;;2.28;0.90;;;6.00;99.90;;;;;;4996471;28;20022;-75
2023/12/20 01:31:54;;;;;;;2.05;1.15;;;6.00;99.90;;;;;;4990611;28;20524;-74
2023/12/20 01:34:22;;;;;;;1.55;0.80;;;6.00;99.90;;;;;;4966887;28;20077;-74
2023/12/20 01:36:51;;;;;;;2.17;0.82;;;6.00;99.90;;;;;;5010874;23;20046;-74
2023/12/20 01:39:17;;;;;;;2.33;0.85;;;6.00;99.90;;;;;;5005427;28;20038;-75
2023/12/20 01:41:43;;;;;;;3.80;0.80;;;6.00;99.90;;;;;;5010489;28;20136;-75
2023/12/20 01:44:08;;;;;;;2.45;0.80;;;6.00;99.90;;;;;;5007699;28;20084;-75
2023/12/20 01:46:34;;;;;;;3.38;0.77;;;6.00;99.90;;;;;;5012156;28;20041;-73
2023/12/20 01:49:06;;;;;;;1.42;0.70;;;6.00;99.90;;;;;;5013193;28;20029;-74
2023/12/20 01:51:35;;;;;;;2.97;0.70;;;6.00;99.90;;;;;;5012939;28;20037;-74
2023/12/20 01:54:01;;;;;;;1.48;0.77;;;6.00;99.90;;;;;;5013566;28;20417;-74
2023/12/20 01:56:29;;;;;;;0.60;0.45;;;5.90;99.90;;;;;;4994245;28;20120;-74
2023/12/20 01:58:58;;;;;;;1.50;0.75;;;5.90;99.90;;;;;;5013284;28;20040;-75
2023/12/20 02:01:24;;;;;;;7.00;1.10;;;5.90;99.90;;;;;;5016773;28;20036;-75
2023/12/20 02:03:51;;;;;;;3.03;0.70;;;5.90;99.90;;;;;;5014444;28;20060;-74
2023/12/20 02:06:18;;;;;;;1.17;0.70;;;6.00;99.90;;;;;;5011293;28;20034;-74
2023/12/20 02:08:44;;;;;;;1.13;0.68;;;5.90;99.90;;;;;;5013956;28;20036;-74
2023/12/20 02:11:16;;;;;;;1.38;0.50;;;5.90;99.90;;;;;;4997247;28;20151;-74
2023/12/20 02:13:41;;;;;;;2.70;0.60;;;5.90;99.90;;;;;;5012295;28;20022;-74
2023/12/20 02:16:10;;;;;;;1.15;0.50;;;5.90;99.90;;;;;;5015371;28;20060;-74
2023/12/20 02:18:35;;;;;;;0.95;0.40;;;6.00;99.90;;;;;;5013829;28;20026;-74
2023/12/20 02:21:09;;;;;;;1.20;0.75;;;6.00;99.90;;;;;;5010808;28;20033;-74
2023/12/20 02:23:34;;;;;;;1.08;0.70;;;6.00;99.90;;;;;;5014744;28;20033;-74
2023/12/20 02:26:00;;;;;;;1.30;0.52;;;5.90;99.90;;;;;;5013212;28;20510;-73
2023/12/20 02:28:29;;;;;;;1.10;0.60;;;5.90;99.90;;;;;;4997708;28;20112;-74
2023/12/20 02:31:03;;;;;;;1.70;0.60;;;5.90;99.90;;;;;;5009157;28;20022;-74
2023/12/20 02:33:32;;;;;;;1.30;0.75;;;5.90;99.90;;;;;;5004976;28;20030;-74
2023/12/20 02:35:57;;;;;;;2.53;0.63;;;5.90;99.90;;;;;;4994039;28;20061;-74
2023/12/20 02:38:23;;;;;;;4.93;0.65;;;5.90;99.90;;;;;;5014222;28;20459;-75
2023/12/20 02:40:49;;;;;;;0.85;0.50;;;5.90;99.90;;;;;;5008834;28;20034;-75
2023/12/20 02:43:14;;;;;;;0.90;0.55;;;5.90;99.90;;;;;;5008211;28;20108;-74
2023/12/20 02:45:40;;;;;;;1.35;0.82;;;5.90;99.90;;;;;;5012554;28;20026;-74
2023/12/20 02:48:06;;;;;;;0.95;0.50;;;5.80;99.90;;;;;;5007578;28;20496;-73
2023/12/20 02:50:31;;;;;;;1.65;0.50;;;5.80;99.90;;;;;;5010124;28;20108;-73
2023/12/20 02:53:03;;;;;;;1.42;0.60;;;5.80;99.90;;;;;;5011677;28;20025;-74
2023/12/20 02:55:28;;;;;;;0.68;0.50;;;5.80;99.90;;;;;;5006519;28;20022;-74
2023/12/20 02:57:54;;;;;;;0.80;0.50;;;5.80;99.90;;;;;;4995357;28;20112;-74
2023/12/20 03:00:19;;;;;;;0.63;0.40;;;5.80;99.90;;;;;;4993360;28;20112;-74
2023/12/20 03:02:45;;;;;;;1.58;0.80;;;5.80;99.90;;;;;;5012863;28;20045;-74
2023/12/20 03:05:10;;;;;;;1.88;0.60;;;5.80;99.90;;;;;;5013791;28;20564;-73
2023/12/20 03:07:42;;;;;;;1.35;0.60;;;5.80;99.90;;;;;;5010834;28;20476;-73
2023/12/20 03:10:11;;;;;;;1.35;0.60;;;5.80;99.90;;;;;;5015010;28;20030;-74
2023/12/20 03:12:37;;;;;;;1.45;0.55;;;5.80;99.90;;;;;;5011350;28;20098;-74
2023/12/20 03:15:08;;;;;;;1.05;0.60;;;5.80;99.90;;;;;;5012217;28;20101;-74
2023/12/20 03:17:37;;;;;;;0.80;0.50;;;5.80;99.90;;;;;;5012778;28;20455;-74
2023/12/20 03:20:06;;;;;;;0.60;0.38;;;5.80;99.90;;;;;;5008554;28;20120;-73
2023/12/20 03:22:32;;;;;;;0.70;0.47;;;5.80;99.90;;;;;;5010024;28;20077;-73
2023/12/20 03:25:00;;;;;;;0.60;0.40;;;5.80;99.90;;;;;;5007211;28;20085;-73
2023/12/20 03:27:26;;;;;;;1.02;0.57;;;5.80;99.90;;;;;;5008903;28;20456;-72
2023/12/20 03:29:52;;;;;;;0.60;0.40;;;5.80;99.90;;;;;;5015348;28;20088;-73
2023/12/20 03:32:17;;;;;;;1.25;0.40;;;5.80;99.90;;;;;;5009620;28;20036;-73
2023/12/20 03:34:43;;;;;;;1.42;0.40;;;5.80;99.90;;;;;;5013710;28;20419;-73
2023/12/20 03:37:14;;;;;;;1.67;0.50;;;5.80;99.90;;;;;;5008129;28;20157;-73
2023/12/20 03:39:43;;;;;;;0.85;0.40;;;5.80;99.90;;;;;;5006439;28;20399;-72
2023/12/20 03:42:13;;;;;;;0.55;0.40;;;5.80;99.90;;;;;;5009917;28;20040;-73
2023/12/20 03:44:40;;;;;;;1.00;0.50;;;5.80;99.90;;;;;;5009396;28;20018;-73
2023/12/20 03:47:06;;;;;;;2.47;0.63;;;5.80;99.90;;;;;;5010267;28;20030;-74
2023/12/20 03:49:36;;;;;;;0.77;0.40;;;5.80;99.90;;;;;;5011601;28;20030;-74
2023/12/20 03:52:03;;;;;;;1.40;0.47;;;5.80;99.90;;;;;;5005541;28;20053;-74
2023/12/20 03:54:31;;;;;;;0.80;0.45;;;5.80;99.90;;;;;;5008624;28;20026;-73
2023/12/20 03:56:57;;;;;;;3.50;0.57;;;5.80;99.90;;;;;;5003599;28;20062;-73
2023/12/20 03:59:36;;;;;;;0.73;0.50;;;5.80;99.90;;;;;;5006534;28;20538;-72
2023/12/20 04:02:02;;;;;;;0.85;0.50;;;5.80;99.90;;;;;;5010826;28;20444;-73
2023/12/20 04:04:33;;;;;;;0.60;0.40;;;5.80;99.90;;;;;;5011567;28;20140;-73
2023/12/20 04:07:02;;;;;;;0.30;0.22;;;5.80;99.90;;;;;;5009618;28;20087;-73
2023/12/20 04:09:30;;;;;;;1.15;0.40;;;5.80;99.90;;;;;;5010321;28;20022;-73
2023/12/20 04:11:56;;;;;;;3.28;0.50;;;5.80;99.90;;;;;;5008869;28;20038;-72
2023/12/20 04:14:21;;;;;;;0.68;0.40;;;5.80;99.90;;;;;;5010238;28;20033;-72
2023/12/20 04:16:47;;;;;;;0.82;0.45;;;5.80;99.90;;;;;;5010515;28;20121;-72
2023/12/20 04:19:12;;;;;;;0.75;0.40;;;5.80;99.90;;;;;;5010122;28;20031;-71
2023/12/20 04:21:38;;;;;;;0.75;0.28;;;5.80;99.90;;;;;;5010113;28;20480;-71
2023/12/20 04:24:16;;;;;;;0.30;0.25;;;5.80;99.90;;;;;;5002931;28;20080;-72
2023/12/20 04:26:41;;;;;;;2.33;0.60;;;5.80;99.90;;;;;;5004833;28;20060;-73
2023/12/20 04:29:07;;;;;;;1.23;0.63;;;5.80;99.90;;;;;;5009032;28;20027;-73
2023/12/20 04:31:32;;;;;;;1.10;0.55;;;5.70;99.90;;;;;;5008608;28;20098;-73
2023/12/20 04:33:58;;;;;;;0.90;0.47;;;5.80;99.90;;;;;;5008721;28;20041;-72
2023/12/20 04:36:27;;;;;;;0.38;0.20;;;5.80;99.90;;;;;;5007666;28;20053;-72
2023/12/20 04:38:53;;;;;;;1.23;0.50;;;5.80;99.90;;;;;;5002305;28;20049;-73
2023/12/20 04:41:19;;;;;;;0.52;0.30;;;5.80;99.90;;;;;;4996837;28;20030;-73
2023/12/20 04:43:44;;;;;;;1.38;0.30;;;5.70;99.90;;;;;;5011068;28;20041;-73
2023/12/20 04:46:16;;;;;;;1.42;0.32;;;5.80;99.90;;;;;;5010451;28;20030;-73
2023/12/20 04:48:41;;;;;;;0.63;0.40;;;5.70;99.90;;;;;;5014389;28;20029;-74
2023/12/20 04:51:07;;;;;;;0.50;0.20;;;5.70;99.90;;;;;;5009190;28;20042;-73
2023/12/20 04:53:35;;;;;;;1.38;0.43;;;5.70;99.90;;;;;;5012249;28;20038;-72
2023/12/20 04:56:07;;;;;;;0.63;0.32;;;5.70;99.90;;;;;;5011916;28;20026;-72
2023/12/20 04:58:33;;;;;;;0.88;0.40;;;5.70;99.90;;;;;;5010560;28;20485;-71
2023/12/20 05:01:09;;;;;;;0.68;0.25;;;5.70;99.90;;;;;;5013898;28;20029;-72
2023/12/20 05:03:43;;;;;;;0.65;0.32;;;5.70;99.90;;;;;;5014956;28;20431;-71
2023/12/20 05:06:10;;;;;;;0.85;0.30;;;5.70;99.90;;;;;;5013876;28;20760;-73
2023/12/20 05:08:35;;;;;;;0.28;0.20;;;5.70;99.90;;;;;;5016644;28;20128;-73
2023/12/20 05:11:01;;;;;;;0.35;0.20;;;5.70;99.90;;;;;;5014046;28;20058;-72
2023/12/20 05:13:27;;;;;;;0.73;0.20;;;5.70;99.90;;;;;;5008959;28;20042;-72
2023/12/20 05:15:53;;;;;;;0.70;0.30;;;5.70;99.90;;;;;;5008594;28;20061;-71
2023/12/20 05:18:22;;;;;;;0.88;0.50;;;5.70;99.90;;;;;;5013573;28;20021;-72
2023/12/20 05:20:49;;;;;;;0.60;0.32;;;5.70;99.90;;;;;;5011254;28;20014;-72
2023/12/20 05:23:15;;;;;;;0.55;0.40;;;5.70;99.90;;;;;;5015242;28;20040;-72
2023/12/20 05:25:43;;;;;;;0.68;0.30;;;5.70;99.90;;;;;;4997814;28;20109;-72
2023/12/20 05:28:12;;;;;;;2.17;0.45;;;5.70;99.90;;;;;;5016162;28;20042;-72
2023/12/20 05:30:38;;;;;;;0.65;0.20;;;5.70;99.90;;;;;;5012768;28;20032;-73
2023/12/20 05:33:03;;;;;;;0.38;0.15;;;5.70;99.90;;;;;;5015269;28;20022;-73
2023/12/20 05:35:29;;;;;;;0.40;0.20;;;5.70;99.90;;;;;;5009131;28;20030;-73
2023/12/20 05:37:54;;;;;;;0.13;0.10;;;5.70;99.90;;;;;;5013421;28;20029;-73
2023/12/20 05:40:20;;;;;;;0.20;0.13;;;5.70;99.90;;;;;;5009870;28;20400;-73
2023/12/20 05:42:51;;;;;;;0.38;0.20;;;5.70;99.90;;;;;;5017440;28;20076;-73
2023/12/20 05:45:23;;;;;;;0.43;0.30;;;5.70;99.90;;;;;;5012324;28;20034;-74
2023/12/20 05:47:49;;;;;;;0.50;0.30;;;5.70;99.90;;;;;;5010824;28;20548;-74
2023/12/20 05:50:17;;;;;;;0.73;0.40;;;5.60;99.90;;;;;;5013595;28;20033;-75
2023/12/20 05:52:50;;;;;;;0.20;0.20;;;5.60;99.90;;;;;;5012179;28;20034;-74
2023/12/20 05:55:18;;;;;;;1.02;0.35;;;5.60;99.90;;;;;;5009627;28;20021;-75
2023/12/20 05:57:50;;;;;;;0.88;0.63;;;5.60;99.90;;;;;;5010979;28;20079;-74
2023/12/20 06:00:19;;;;;;;0.95;0.40;;;5.70;99.90;;;;;;5008019;28;20029;-74
2023/12/20 06:02:47;;;;;;;0.50;0.25;;;5.60;99.90;;;;;;5012078;28;20104;-74
2023/12/20 06:05:19;;;;;;;0.60;0.30;;;5.60;99.90;;;;;;5017411;28;20053;-75
2023/12/20 06:07:48;;;;;;;0.88;0.40;;;5.60;99.90;;;;;;5009846;28;20018;-74
2023/12/20 06:10:31;;;;;;;0.88;0.35;;;5.60;99.90;;;;;;5011940;28;20080;-74
2023/12/20 06:12:58;;;;;;;0.30;0.30;;;5.70;99.90;;;;;;4994086;28;20450;-73
2023/12/20 06:15:27;;;;;;;1.25;0.20;;;5.70;99.90;;;;;;4999021;28;20476;-74
2023/12/20 06:17:53;;;;;;;0.85;0.30;;;5.70;99.90;;;;;;4991797;28;20063;-73
2023/12/20 06:20:21;;;;;;;0.50;0.32;;;5.70;99.90;;;;;;5010399;28;20101;-74
2023/12/20 06:22:47;;;;;;;1.15;0.40;;;5.70;99.90;;;;;;5014056;28;20120;-74
2023/12/20 06:25:16;;;;;;;0.55;0.30;;;5.70;99.90;;;;;;5011061;28;20061;-74
2023/12/20 06:27:42;;;;;;;0.95;0.20;;;5.70;99.90;;;;;;5007390;28;20026;-73
2023/12/20 06:30:11;;;;;;;0.68;0.45;;;5.70;99.90;;;;;;4991694;28;20032;-73
2023/12/20 06:32:37;;;;;;;0.52;0.30;;;5.70;99.90;;;;;;5012756;28;20026;-73
2023/12/20 06:35:06;;;;;;;1.10;0.30;;;5.70;99.90;;;;;;5010038;28;20132;-73
2023/12/20 06:37:32;;;;;;;0.20;0.20;;;5.70;99.90;;;;;;5014432;28;20512;-73
2023/12/20 06:40:01;;;;;;;1.48;0.40;;;5.70;99.90;;;;;;5010302;28;20057;-73
2023/12/20 06:42:26;;;;;;;1.05;0.40;;;5.70;99.90;;;;;;5011432;28;20019;-72
2023/12/20 06:45:07;;;;;;;1.02;0.57;;;5.80;99.90;;;;;;5008028;28;20117;-72
2023/12/20 06:47:36;;;;;;;0.85;0.57;;;5.80;99.90;;;;;;5010315;28;20049;-73
2023/12/20 06:50:08;;;;;;;1.58;0.60;;;5.80;99.90;;;;;;5005381;28;20416;-76
2023/12/20 06:52:42;;;;;;;1.55;0.77;;;5.90;99.90;;;;;;5008957;28;20037;-72
2023/12/20 06:55:11;;;;;;;2.20;0.80;;;5.90;99.90;;;;;;5012373;28;20060;-74
2023/12/20 06:57:39;;;;;;;1.35;0.60;;;5.90;99.90;;;;;;5011425;28;20026;-74
2023/12/20 07:00:12;;;;;;;0.63;0.40;;;5.90;99.90;;;;;;5009661;28;20033;-74
2023/12/20 07:02:37;;;;;;;0.60;0.30;;;5.90;99.90;;;;;;4998794;28;20026;-73
2023/12/20 07:05:06;;;;;;;0.63;0.30;;;5.90;99.90;;;;;;5007002;28;20106;-73
2023/12/20 07:07:32;;;;;;;0.50;0.40;;;5.90;99.90;;;;;;5012936;28;20080;-73
2023/12/20 07:09:57;;;;;;;0.68;0.20;;;5.90;99.90;;;;;;5008968;28;20057;-74
2023/12/20 07:12:23;;;;;;;2.45;0.40;;;5.80;99.90;;;;;;5018024;28;20084;-75
2023/12/20 07:14:51;;;;;;;0.63;0.40;;;5.90;99.90;;;;;;5011361;28;20037;-74
2023/12/20 07:17:17;;;;;;;1.85;0.60;;;5.90;99.90;;;;;;5005213;28;20516;-75
2023/12/20 07:19:42;;;;;;;0.80;0.60;;;5.90;99.90;;;;;;5005942;28;20030;-74
2023/12/20 07:22:08;;;;;;;0.35;0.30;;;5.90;99.90;;;;;;5014553;28;20104;-74
2023/12/20 07:24:34;;;;;;;3.63;0.52;;;5.90;99.90;;;;;;4992848;28;20040;-73
2023/12/20 07:27:00;;;;;;;0.70;0.40;;;5.90;99.90;;;;;;5009951;28;20077;-72
2023/12/20 07:29:26;;;;;;;0.50;0.30;;;5.90;99.90;;;;;;5009702;28;20026;-73
2023/12/20 07:31:53;;;;;;;2.60;0.70;;;5.90;99.90;;;;;;5010141;28;20022;-75
2023/12/20 07:34:20;;;;;;;1.40;0.68;;;5.90;99.90;;;;;;5013247;28;20022;-72
2023/12/20 07:36:45;;;;;;;0.88;0.50;;;6.00;99.90;;;;;;5011043;28;20439;-79
2023/12/20 07:39:11;;;;;;;2.55;0.30;;;5.90;99.90;;;;;;5015436;28;20042;-78
2023/12/20 07:41:36;;;;;;;0.65;0.40;;;5.90;99.90;;;;;;5008863;28;20065;-77
2023/12/20 07:44:03;;;;;;;2.17;0.20;;;6.00;99.90;;;;;;5011427;28;20085;-78
2023/12/20 07:46:29;;;;;;;1.35;0.35;;;6.00;99.90;;;;;;5011852;28;20109;-78
2023/12/20 07:49:01;;;;;;;0.32;0.30;;;6.00;99.90;;;;;;5010997;28;20096;-77
2023/12/20 07:51:29;;;;;;;0.50;0.20;;;6.00;99.90;;;;;;5009617;28;20033;-77
2023/12/20 07:53:55;;;;;;;0.55;0.25;;;5.90;99.90;;;;;;5007825;28;20403;-77
2023/12/20 07:56:26;;;;;;;0.93;0.40;;;5.90;99.90;;;;;;5012883;28;20026;-78
2023/12/20 07:58:55;;;;;;;0.57;0.20;;;5.90;99.90;;;;;;5007257;28;20147;-79
2023/12/20 08:01:23;;;;;;;0.77;0.40;;;5.90;99.90;;;;;;5005900;28;20083;-77
2023/12/20 08:03:50;;;;;;;1.02;0.30;;;5.90;99.90;;;;;;5011961;28;20101;-77
2023/12/20 08:06:21;;;;;;;1.95;0.20;;;5.90;99.90;;;;;;5010322;28;20030;-78
2023/12/20 08:08:46;;;;;;;0.77;0.40;;;5.90;99.90;;;;;;5013662;28;20026;-77
2023/12/20 08:11:12;;;;;;;1.23;0.40;;;5.90;99.90;;;;;;5014320;28;20032;-78
2023/12/20 08:13:41;;;;;;;0.82;0.40;;;6.00;99.90;;;;;;5013578;28;20504;-77
2023/12/20 08:16:06;;;;;;;0.95;0.40;;;5.90;99.90;;;;;;5007452;28;20072;-78
2023/12/20 08:18:35;;;;;;;1.80;0.40;;;6.00;99.90;;;;;;5004768;28;20116;-76
2023/12/20 08:21:09;;;;;;;2.58;0.52;;;6.00;99.90;;;;;;4991165;28;20037;-77
2023/12/20 08:23:35;;;;;;;0.98;0.50;;;6.00;99.90;;;;;;5008247;28;20041;-77
2023/12/20 08:26:24;;;;;;;0.93;0.40;;;6.00;99.90;;;;;;5009626;28;20022;-77
2023/12/20 08:28:50;;;;;;;1.65;0.50;;;5.90;99.90;;;;;;4995739;28;20418;-77
2023/12/20 08:31:16;;;;;;;2.10;0.45;;;5.90;99.90;;;;;;5010953;28;20029;-77
2023/12/20 08:33:46;;;;;;;1.05;0.50;;;6.00;99.90;;;;;;5013274;28;20509;-78
2023/12/20 08:36:17;;;;;;;2.60;0.45;;;6.00;99.90;;;;;;4994332;28;20385;-78
2023/12/20 08:38:43;;;;;;;1.23;0.30;;;6.00;99.90;;;;;;5014976;28;20081;-79
2023/12/20 08:41:20;;;;;;;1.88;0.50;;;6.00;99.90;;;;;;5011826;28;20148;-78
2023/12/20 08:43:46;;;;;;;0.82;0.50;;;6.00;99.90;;;;;;5013623;28;20010;-78
2023/12/20 08:46:12;;;;;;;1.10;0.52;;;6.00;99.90;;;;;;5012427;28;20034;-78
2023/12/20 08:48:40;;;;;;;1.42;0.40;;;6.10;99.90;;;;;;5016293;28;20028;-78
2023/12/20 08:51:10;;;;;;;2.70;0.68;;;6.10;99.90;;;;;;5012273;28;20022;-78
2023/12/20 08:53:35;;;;;;;2.47;0.40;;;6.10;99.90;;;;;;5010613;28;20037;-79
2023/12/20 08:56:01;;;;;;;0.93;0.60;;;6.10;99.90;;;;;;5012483;28;20038;-78
2023/12/20 08:58:35;;;;;;;2.63;0.47;;;6.10;99.90;;;;;;5015412;28;20496;-77
2023/12/20 09:01:04;;;;;;;1.17;0.52;;;6.10;99.90;;;;;;5006872;28;20022;-79
2023/12/20 09:03:33;;;;;;;1.30;0.60;;;6.10;99.90;;;;;;5018106;28;20053;-78
2023/12/20 09:05:58;;;;;;;0.88;0.40;;;6.10;99.90;;;;;;5015062;28;20093;-79
2023/12/20 09:08:27;;;;;;;0.93;0.52;;;6.10;99.90;;;;;;5011418;28;20053;-78
2023/12/20 09:10:52;;;;;;;0.47;0.40;;;6.10;99.90;;;;;;5008217;28;20026;-80
2023/12/20 09:13:18;;;;;;;1.63;0.60;;;6.10;99.90;;;;;;4994197;28;20030;-78
2023/12/20 09:15:43;;;;;;;2.90;0.55;;;6.10;99.90;;;;;;4995844;28;20032;-79
2023/12/20 09:18:12;;;;;;;0.98;0.60;;;6.10;99.90;;;;;;5012176;28;20042;-79
2023/12/20 09:20:38;;;;;;;1.65;0.60;;;6.20;99.90;;;;;;5008777;28;20095;-79
2023/12/20 09:23:03;;;;;;;2.42;0.55;;;6.20;99.90;;;;;;5007940;28;20105;-79
2023/12/20 09:25:35;;;;;;;7.15;1.17;;;6.20;99.90;;;;;;4995507;28;20527;-79
2023/12/20 09:28:01;;;;;;;1.38;0.80;;;6.20;99.90;;;;;;5001596;28;20018;-78
2023/12/20 09:30:26;;;;;;;2.13;0.70;;;6.20;99.90;;;;;;5013141;28;20037;-79
2023/12/20 09:32:52;;;;;;;2.30;1.00;;;6.10;99.90;;;;;;5012691;28;20143;-79
2023/12/20 09:35:21;;;;;;;1.73;0.80;;;6.10;99.90;;;;;;5015132;28;20037;-79
2023/12/20 09:37:49;;;;;;;4.88;1.30;;;6.00;99.90;;;;;;5011972;28;20026;-78
2023/12/20 09:40:18;;;;;;;1.75;0.90;;;5.90;99.90;;;;;;5009748;28;20426;-78
2023/12/20 09:43:16;;;;;;;4.63;1.65;;;5.90;99.90;;;;;;4999390;28;20026;-77
2023/12/20 09:45:45;;;;;;;3.70;1.58;;;5.80;99.90;;;;;;5003327;28;20069;-78
2023/12/20 09:48:11;;;;;;;2.17;1.50;;;5.80;99.90;;;;;;5019045;28;20040;-78
2023/12/20 09:50:37;;;;;;;3.75;1.63;;;5.70;99.90;;;;;;5014389;28;20120;-78
2023/12/20 09:53:08;;;;;;;2.95;1.40;;;5.70;99.90;;;;;;4994753;28;20058;-78
2023/12/20 09:55:39;;;;;;;2.30;1.23;;;5.70;99.90;;;;;;4992118;28;20029;-78
2023/12/20 09:58:08;;;;;;;4.68;1.42;;;5.60;99.90;;;;;;5011266;28;20032;-79
2023/12/20 10:00:43;;;;;;;4.15;1.23;;;5.50;99.90;;;;;;5015324;28;20022;-78
2023/12/20 10:03:15;;;;;;;3.30;1.25;;;5.60;99.90;;;;;;5009889;28;20362;-79
2023/12/20 10:05:44;;;;;;;3.95;1.42;;;5.50;99.90;;;;;;5013281;28;20025;-77
2023/12/20 10:08:13;;;;;;;7.45;1.38;;;5.50;99.90;;;;;;5012550;28;20045;-77
2023/12/20 10:10:48;;;;;;;2.95;1.40;;;5.50;99.90;;;;;;5013359;28;20385;-78
2023/12/20 10:13:19;;;;;;;4.28;0.90;;;5.50;99.90;;;;;;5017805;28;20550;-77
2023/12/20 10:15:51;;;;;;;4.10;1.45;;;5.50;99.90;;;;;;5014226;28;20040;-79
2023/12/20 10:18:22;;;;;;;1.70;0.90;;;5.50;99.90;;;;;;5015211;28;20482;-78
2023/12/20 10:20:51;;;;;;;7.13;1.73;;;5.50;99.90;;;;;;4999783;28;20041;-78
2023/12/20 10:23:20;;;;;;;4.20;1.40;;;5.50;99.90;;;;;;5011662;28;20038;-78
2023/12/20 10:25:59;;;;;;;3.10;1.35;;;5.50;99.90;;;;;;5006637;28;20045;-77
2023/12/20 10:28:27;;;;;;;3.17;1.50;;;5.60;99.90;;;;;;5012278;28;20524;-78
2023/12/20 10:30:56;;;;;;;3.50;2.40;;;5.50;99.90;;;;;;5016055;28;20492;-78
2023/12/20 10:33:37;;;;;;;4.00;1.55;;;5.50;99.90;;;;;;5014297;28;20025;-77
2023/12/20 10:36:03;;;;;;;3.15;1.48;;;5.50;99.90;;;;;;5009931;28;20030;-77
2023/12/20 10:38:30;;;;;;;4.82;1.52;;;5.50;99.90;;;;;;5011298;28;20029;-78
2023/12/20 10:41:03;;;;;;;5.28;1.23;;;5.50;99.90;;;;;;5015890;28;20022;-78
2023/12/20 10:43:30;;;;;;;3.40;1.20;;;5.50;99.90;;;;;;5012661;28;20500;-78
2023/12/20 10:45:55;;;;;;;4.82;1.77;;;5.50;99.90;;;;;;5010259;28;20641;-77
2023/12/20 10:48:26;;;;;;;4.28;1.20;;;5.40;99.90;;;;;;5013821;28;20029;-78
2023/12/20 10:50:58;;;;;;;4.60;0.80;;;5.40;99.90;;;;;;5009339;28;20022;-78
2023/12/20 10:53:25;;;;;;;2.92;1.13;;;5.40;99.90;;;;;;5008689;28;20110;-78
2023/12/20 10:55:54;;;;;;;3.85;1.33;;;5.40;99.90;;;;;;5012029;28;20030;-77
2023/12/20 10:58:28;;;;;;;3.92;1.27;;;5.40;99.90;;;;;;5012874;28;20117;-78
2023/12/20 11:01:07;;;;;;;4.18;1.30;;;5.40;99.90;;;;;;5011302;28;20026;-78
2023/12/20 11:03:42;;;;;;;4.00;0.98;;;5.40;99.90;;;;;;5009610;28;20025;-78
2023/12/20 11:06:08;;;;;;;3.85;0.90;;;5.50;99.90;;;;;;5008267;28;20041;-78
2023/12/20 11:08:53;;;;;;;3.10;1.10;;;5.50;99.90;;;;;;5012592;28;20464;-77
2023/12/20 11:11:51;;;;;;;4.60;1.20;;;5.50;99.90;;;;;;5007717;28;20030;-78
2023/12/20 11:14:29;;;;;;;5.18;0.90;;;5.50;99.90;;;;;;5007415;28;20424;-77
2023/12/20 11:17:17;;;;;;;4.15;0.93;;;5.50;99.90;;;;;;5010837;28;20021;-77
2023/12/20 11:19:59;;;;;;;3.05;1.13;;;5.50;99.90;;;;;;5011252;28;20033;-78
2023/12/20 11:22:31;;;;;;;2.58;0.98;;;5.60;99.90;;;;;;5007825;28;20047;-76
2023/12/20 11:25:10;;;;;;;3.08;0.80;;;5.60;99.90;;;;;;5008210;28;20507;-77
2023/12/20 11:28:09;;;;;;;3.15;1.10;;;5.60;99.90;;;;;;5007722;28;20469;-77
2023/12/20 11:30:53;;;;;;;3.67;1.50;;;5.70;99.90;;;;;;5009019;28;20119;-78
2023/12/20 11:33:26;;;;;;;3.90;0.90;;;5.70;99.90;;;;;;5009186;28;20568;-78
2023/12/20 11:35:55;;;;;;;3.25;1.40;;;5.70;99.90;;;;;;5009576;28;20448;-78
2023/12/20 11:38:21;;;;;;;3.53;1.38;;;5.80;99.90;;;;;;4991869;28;20037;-78
2023/12/20 11:40:49;;;;;;;3.03;1.10;;;5.80;99.90;;;;;;5010945;28;20374;-77
2023/12/20 11:43:38;;;;;;;2.47;1.17;;;5.80;99.90;;;;;;5011009;28;20113;-78
2023/12/20 11:46:08;;;;;;;4.15;0.90;;;5.80;99.90;;;;;;4992574;28;20080;-77
2023/12/20 11:48:36;;;;;;;4.55;1.20;;;5.90;99.90;;;;;;5010611;28;20040;-77
2023/12/20 11:51:11;;;;;;;2.58;1.25;;;5.90;99.90;;;;;;5004803;28;20030;-77
2023/12/20 11:53:52;;;;;;;2.92;0.93;;;5.90;99.90;;;;;;5009202;28;20543;-78
2023/12/20 11:56:18;;;;;;;2.60;1.00;;;5.90;99.90;;;;;;4990655;28;20430;-78
2023/12/20 11:58:48;;;;;;;5.30;0.90;;;6.00;99.90;;;;;;5009131;28;20053;-78
2023/12/20 12:01:14;;;;;;;2.85;0.95;;;6.00;99.90;;;;;;5012840;28;20087;-78
2023/12/20 12:03:46;;;;;;;4.15;0.80;;;6.00;99.90;;;;;;5010739;28;20042;-78
2023/12/20 12:06:13;;;;;;;5.97;1.27;;;6.10;99.90;;;;;;5010609;28;20052;-78
2023/12/20 12:08:38;;;;;;;7.57;1.50;;;6.10;99.90;;;;;;5007198;28;20395;-78
2023/12/20 12:11:07;;;;;;;6.43;1.10;;;6.10;99.90;;;;;;5012183;28;20025;-79
2023/12/20 12:13:35;;;;;;;4.63;1.00;;;6.10;99.90;;;;;;5013076;28;20450;-78
2023/12/20 12:16:01;;;;;;;5.18;1.08;;;6.10;99.90;;;;;;5009366;28;20108;-78
2023/12/20 12:18:45;;;;;;;3.05;1.42;;;6.10;99.90;;;;;;4994244;28;20231;-78
2023/12/20 12:21:18;;;;;;;6.97;1.73;;;6.10;99.90;;;;;;5013814;28;20033;-78
2023/12/20 12:23:44;;;;;;;4.05;1.20;;;6.00;99.90;;;;;;5007104;28;20094;-78
2023/12/20 12:26:09;;;;;;;8.63;1.60;;;6.00;99.90;;;;;;5014970;28;20133;-79
2023/12/20 12:28:40;;;;;;;7.10;1.40;;;6.00;99.90;;;;;;4996310;28;20397;-77
2023/12/20 12:31:25;;;;;;;4.35;1.35;;;6.00;99.90;;;;;;5015851;28;20063;-78
2023/12/20 12:33:51;;;;;;;4.90;1.20;;;6.00;99.90;;;;;;5012438;28;20031;-78
2023/12/20 12:36:19;;;;;;;5.38;1.20;;;6.00;99.90;;;;;;5015076;28;20105;-79
2023/12/20 12:38:48;;;;;;;4.25;1.15;;;6.00;99.90;;;;;;5005881;28;20021;-78
2023/12/20 12:41:15;;;;;;;3.35;0.80;;;5.90;99.90;;;;;;5012805;28;20072;-79
2023/12/20 12:43:41;;;;;;;4.00;1.30;;;5.90;99.90;;;;;;4993720;28;20034;-78
2023/12/20 12:46:07;;;;;;;5.35;1.42;;;5.90;99.90;;;;;;5008312;28;20042;-79
2023/12/20 12:48:35;;;;;;;7.32;1.15;;;5.90;99.90;;;;;;5012907;28;20041;-78
2023/12/20 12:51:01;;;;;;;7.00;1.20;;;5.90;99.90;;;;;;5016074;28;20040;-78
2023/12/20 12:53:32;;;;;;;3.50;1.20;;;5.90;99.90;;;;;;4995635;28;20030;-78
2023/12/20 12:56:08;;;;;;;2.85;1.13;;;5.90;99.90;;;;;;5008185;28;20084;-79
2023/12/20 12:58:33;;;;;;;7.60;1.23;;;5.90;99.90;;;;;;5007914;28;20032;-77
2023/12/20 13:00:59;;;;;;;4.90;1.10;;;5.80;99.90;;;;;;5013588;28;20104;-78
2023/12/20 13:03:31;;;;;;;3.85;1.15;;;5.80;99.90;;;;;;5016764;28;20104;-79
2023/12/20 13:05:59;;;;;;;4.13;1.13;;;5.80;99.90;;;;;;5014105;28;20026;-79